Fene, Spain
Current Conditions -  °F | °C
As of 2:00 PM on Saturday 22 Nov 2014 (Local Time) from LECO Reporting Station
Moderate Rain Moderate Rain  
Wind Chill: 57°   Ceiling: 400
Heat Index: 57°   Visibility: 4mi
Dew Point: 57°   Wind: 8mph
Humidity: 100%   Direction: 340°NNW
Pressure: 29.88"   Gusts: 22mph
Location:  43.45°N, 8.15°W
Report Text: LECO 221300Z 34007G19KT 300V040 6000 RA BKN004 BKN035 14/14 Q1012 TEMPO 1500 RA
Loading
Personal Weather Stations






























Interactive Weather Map New forecast layout! Learn more

10-Day Weather Forecast

Advertisements
Track Severe Weather on mobile